createdAt,value
2019-02-26T00:00:49.112Z,3.50
2019-02-26T00:03:02.417Z,3.50
2019-02-26T00:05:11.356Z,3.50
2019-02-26T00:07:35.217Z,3.40
2019-02-26T00:09:51.233Z,3.40
2019-02-26T00:12:02.588Z,3.40
2019-02-26T00:14:13.155Z,3.30
2019-02-26T00:16:21.442Z,3.30
2019-02-26T00:18:27.652Z,3.30
2019-02-26T00:20:34.405Z,3.30
2019-02-26T00:22:43.201Z,3.30
2019-02-26T00:25:03.813Z,3.30
2019-02-26T00:30:37.410Z,3.30
2019-02-26T00:32:44.823Z,3.30
2019-02-26T00:34:57.466Z,3.30
2019-02-26T00:37:04.044Z,3.30
2019-02-26T00:39:25.032Z,3.30
2019-02-26T00:41:40.155Z,3.20
2019-02-26T00:43:53.542Z,3.20
2019-02-26T00:46:07.986Z,3.20
2019-02-26T00:48:17.281Z,3.10
2019-02-26T00:50:24.727Z,3.10
2019-02-26T00:52:34.822Z,3.10
2019-02-26T00:54:41.180Z,3.10
2019-02-26T00:56:46.919Z,3.10
2019-02-26T00:58:52.039Z,3.10
2019-02-26T01:00:59.352Z,3.10
2019-02-26T01:03:06.048Z,3.20
2019-02-26T01:05:18.169Z,3.10
2019-02-26T01:07:26.047Z,3.10
2019-02-26T01:09:33.995Z,3.10
2019-02-26T01:11:39.073Z,3.10
2019-02-26T01:13:43.865Z,3.00
2019-02-26T01:15:48.588Z,3.00
2019-02-26T01:17:54.994Z,3.00
2019-02-26T01:20:22.642Z,3.00
2019-02-26T01:22:27.936Z,2.90
2019-02-26T01:24:33.833Z,2.90
2019-02-26T01:26:42.655Z,2.90
2019-02-26T01:28:48.247Z,2.90
2019-02-26T01:30:55.577Z,3.00
2019-02-26T01:33:00.555Z,2.90
2019-02-26T01:35:05.991Z,2.90
2019-02-26T01:37:12.132Z,2.80
2019-02-26T01:39:19.220Z,2.80
2019-02-26T01:41:25.022Z,2.80
2019-02-26T01:43:30.470Z,2.80
2019-02-26T01:45:35.534Z,2.70
2019-02-26T01:47:40.892Z,2.70
2019-02-26T01:49:48.959Z,2.70
2019-02-26T01:51:54.615Z,2.70
2019-02-26T01:54:00.162Z,2.50
2019-02-26T01:56:06.488Z,2.50
2019-02-26T01:58:15.900Z,2.50
2019-02-26T02:00:19.348Z,2.50
2019-02-26T02:02:25.287Z,2.50
2019-02-26T02:04:32.103Z,2.50
2019-02-26T02:06:48.014Z,2.50
2019-02-26T02:09:22.692Z,2.50
2019-02-26T02:11:48.623Z,2.40
2019-02-26T02:13:57.245Z,2.40
2019-02-26T02:16:11.147Z,2.40
2019-02-26T02:18:46.033Z,2.40
2019-02-26T02:20:51.545Z,2.30
2019-02-26T02:23:00.590Z,2.30
2019-02-26T02:25:33.234Z,2.30
2019-02-26T02:28:06.138Z,2.30
2019-02-26T02:30:38.881Z,2.30
2019-02-26T02:32:53.724Z,2.30
2019-02-26T02:42:13.347Z,2.20
2019-02-26T02:48:25.271Z,2.20
2019-02-26T02:50:48.698Z,2.20
2019-02-26T02:52:56.082Z,2.10
2019-02-26T02:57:26.925Z,2.10
2019-02-26T02:59:34.034Z,2.20
2019-02-26T03:01:39.610Z,2.20
2019-02-26T03:03:45.244Z,2.10
2019-02-26T03:05:51.657Z,2.10
2019-02-26T03:07:56.792Z,2.00
2019-02-26T03:10:06.886Z,2.10
2019-02-26T03:12:12.243Z,2.00
2019-02-26T03:14:18.696Z,2.00
2019-02-26T03:16:25.139Z,2.00
2019-02-26T03:18:30.687Z,2.00
2019-02-26T03:20:39.845Z,2.00
2019-02-26T03:22:46.108Z,1.90
2019-02-26T03:24:51.366Z,1.80
2019-02-26T03:26:56.361Z,1.80
2019-02-26T03:29:01.398Z,1.80
2019-02-26T03:31:06.436Z,1.80
2019-02-26T03:33:11.936Z,1.80
2019-02-26T03:35:19.672Z,1.80
2019-02-26T03:37:25.844Z,1.70
2019-02-26T03:39:33.003Z,1.70
2019-02-26T03:41:39.085Z,1.70
2019-02-26T03:43:47.441Z,1.70
2019-02-26T03:45:53.043Z,1.80
2019-02-26T03:47:58.939Z,1.80
2019-02-26T03:50:08.586Z,2.00
2019-02-26T03:52:15.380Z,2.00
2019-02-26T03:54:17.504Z,2.10
2019-02-26T03:56:22.965Z,2.10
2019-02-26T03:58:28.270Z,2.00
2019-02-26T04:00:34.839Z,2.10
2019-02-26T04:02:43.284Z,2.10
2019-02-26T04:04:51.746Z,2.10
2019-02-26T04:06:55.663Z,2.00
2019-02-26T04:08:59.831Z,2.00
2019-02-26T04:11:05.721Z,2.00
2019-02-26T04:13:10.814Z,2.00
2019-02-26T04:15:15.952Z,2.00
2019-02-26T04:17:23.161Z,2.00
2019-02-26T04:19:28.352Z,1.90
2019-02-26T04:22:08.256Z,1.80
2019-02-26T04:24:13.311Z,1.70
2019-02-26T04:26:57.481Z,1.70
2019-02-26T04:29:37.943Z,1.80
2019-02-26T04:32:14.506Z,1.80
2019-02-26T04:35:02.874Z,1.70
2019-02-26T04:38:00.836Z,1.60
2019-02-26T04:40:44.736Z,1.60
2019-02-26T04:43:34.200Z,1.60
2019-02-26T04:46:14.079Z,1.50
2019-02-26T04:48:22.782Z,1.40
2019-02-26T04:50:28.960Z,1.50
2019-02-26T04:52:35.771Z,1.50
2019-02-26T04:54:40.808Z,1.40
2019-02-26T04:56:50.973Z,1.50
2019-02-26T04:58:57.170Z,1.50
2019-02-26T05:01:12.824Z,1.50
2019-02-26T05:03:19.662Z,1.40
2019-02-26T05:05:25.893Z,1.40
2019-02-26T05:07:32.260Z,1.40
2019-02-26T05:09:37.144Z,1.30
2019-02-26T05:11:42.197Z,1.30
2019-02-26T05:13:47.246Z,1.30
2019-02-26T05:15:52.384Z,1.30
2019-02-26T05:17:57.277Z,1.30
2019-02-26T05:20:04.246Z,1.20
2019-02-26T05:22:08.967Z,1.30
2019-02-26T05:24:15.716Z,1.30
2019-02-26T05:26:20.891Z,1.30
2019-02-26T05:28:26.015Z,1.30
2019-02-26T05:30:30.857Z,1.20
2019-02-26T05:32:35.864Z,1.10
2019-02-26T05:34:42.769Z,1.10
2019-02-26T05:36:47.217Z,1.10
2019-02-26T05:38:54.674Z,1.10
2019-02-26T05:40:58.696Z,1.10
2019-02-26T05:43:04.686Z,1.10
2019-02-26T05:45:10.463Z,1.10
2019-02-26T05:47:20.667Z,1.10
2019-02-26T05:49:24.479Z,1.10
2019-02-26T05:51:32.041Z,1.10
2019-02-26T05:53:36.437Z,1.10
2019-02-26T05:55:42.255Z,1.10
2019-02-26T05:57:48.614Z,1.10
2019-02-26T05:59:53.731Z,1.00
2019-02-26T06:01:58.730Z,1.00
2019-02-26T06:04:06.767Z,1.00
2019-02-26T06:06:11.416Z,1.00
2019-02-26T06:08:44.039Z,1.00
2019-02-26T06:10:50.537Z,0.90
2019-02-26T06:12:55.767Z,0.90
2019-02-26T06:15:04.676Z,0.90
2019-02-26T06:17:07.771Z,0.80
2019-02-26T06:19:15.879Z,0.80
2019-02-26T06:21:23.599Z,0.90
2019-02-26T06:23:31.108Z,0.90
2019-02-26T06:25:35.715Z,0.70
2019-02-26T06:27:41.092Z,0.70
2019-02-26T06:29:45.979Z,0.70
2019-02-26T06:31:50.871Z,0.70
2019-02-26T06:33:56.291Z,0.80
2019-02-26T06:36:03.686Z,0.90
2019-02-26T06:38:28.609Z,0.90
2019-02-26T06:40:36.747Z,1.00
2019-02-26T06:42:40.464Z,1.10
2019-02-26T06:44:47.168Z,1.10
2019-02-26T06:46:51.882Z,1.20
2019-02-26T06:48:57.179Z,1.20
2019-02-26T06:51:02.699Z,1.30
2019-02-26T06:53:10.706Z,1.40
2019-02-26T06:55:15.412Z,1.50
2019-02-26T06:57:20.321Z,1.40
2019-02-26T06:59:32.008Z,1.60
2019-02-26T07:01:37.931Z,1.70
2019-02-26T07:03:43.150Z,1.70
2019-02-26T07:05:48.430Z,1.80
2019-02-26T07:07:55.050Z,2.00
2019-02-26T07:09:59.896Z,2.10
2019-02-26T07:12:04.821Z,2.20
2019-02-26T07:14:10.425Z,2.40
2019-02-26T07:16:15.649Z,2.50
2019-02-26T07:18:20.639Z,2.80
2019-02-26T07:20:33.883Z,3.00
2019-02-26T07:22:32.364Z,3.10
2019-02-26T07:24:38.542Z,3.40
2019-02-26T07:26:45.886Z,3.70
2019-02-26T07:28:51.056Z,4.30
2019-02-26T07:42:22.477Z,14.60
2019-02-26T07:44:28.438Z,15.20
2019-02-26T07:46:35.670Z,16.00
2019-02-26T08:01:29.540Z,19.30
2019-02-26T08:03:34.531Z,19.70
2019-02-26T08:05:39.706Z,20.20
2019-02-26T08:07:46.656Z,20.80
2019-02-26T08:09:51.464Z,21.60
2019-02-26T08:11:56.375Z,21.10
2019-02-26T08:14:01.584Z,22.00
2019-02-26T08:16:07.119Z,22.40
2019-02-26T08:18:14.518Z,22.70
2019-02-26T08:58:42.886Z,16.90
2019-02-26T09:00:48.660Z,16.20
2019-02-26T09:02:56.428Z,17.00
2019-02-26T09:05:01.645Z,17.10
2019-02-26T09:07:07.041Z,17.20
2019-02-26T09:09:11.999Z,17.00
2019-02-26T09:18:09.595Z,17.20
2019-02-26T09:20:15.712Z,17.30
2019-02-26T09:22:21.682Z,17.50
2019-02-26T09:24:27.391Z,17.80
2019-02-26T09:43:36.167Z,19.00
2019-02-26T09:45:43.585Z,19.20
2019-02-26T09:47:49.785Z,19.40
2019-02-26T09:49:56.602Z,19.70
2019-02-26T09:52:03.952Z,19.90
2019-02-26T09:54:10.890Z,20.40
2019-02-26T09:56:15.810Z,20.70
2019-02-26T09:58:22.907Z,19.50
2019-02-26T10:00:29.513Z,20.20
2019-02-26T10:02:34.216Z,20.50
2019-02-26T10:04:39.167Z,21.10
2019-02-26T10:06:44.947Z,21.40
2019-02-26T10:08:51.398Z,21.60
2019-02-26T10:11:00.215Z,21.80
2019-02-26T10:13:05.166Z,21.90
2019-02-26T10:15:10.433Z,22.30
2019-02-26T10:17:17.204Z,22.20
2019-02-26T10:19:21.866Z,22.30
2019-02-26T10:21:27.095Z,22.20
2019-02-26T10:23:32.992Z,21.80
2019-02-26T10:25:38.933Z,22.10
2019-02-26T10:27:45.447Z,21.50
2019-02-26T10:29:50.429Z,21.10
2019-02-26T10:31:56.715Z,19.90
2019-02-26T10:34:02.999Z,20.50
2019-02-26T10:36:10.264Z,21.00
2019-02-26T10:38:14.551Z,21.60
2019-02-26T10:40:19.780Z,21.80
2019-02-26T10:42:24.636Z,21.90
2019-02-26T10:44:29.437Z,22.40
2019-02-26T10:46:35.018Z,22.70
2019-02-26T10:48:41.690Z,23.10
2019-02-26T10:50:50.647Z,23.20
2019-02-26T10:52:57.691Z,23.30
2019-02-26T10:55:00.525Z,22.50
2019-02-26T10:57:07.474Z,22.40
2019-02-26T10:59:13.126Z,23.10
2019-02-26T11:01:22.800Z,23.50
2019-02-26T11:03:25.701Z,23.80
2019-02-26T11:05:30.834Z,23.70
2019-02-26T11:07:38.021Z,23.70
2019-02-26T11:09:44.850Z,23.80
2019-02-26T11:11:49.469Z,23.60
2019-02-26T11:13:54.441Z,23.30
2019-02-26T11:16:02.923Z,23.00
2019-02-26T11:18:08.090Z,23.40
2019-02-26T11:20:14.000Z,23.80
2019-02-26T11:22:21.354Z,23.80
2019-02-26T11:24:28.241Z,23.40
2019-02-26T11:26:41.395Z,23.80
2019-02-26T11:28:51.007Z,23.40
2019-02-26T11:31:19.756Z,23.60
2019-02-26T11:36:56.115Z,23.40
2019-02-26T11:39:06.909Z,23.00
2019-02-26T11:41:35.989Z,22.60
2019-02-26T11:47:29.120Z,23.10
2019-02-26T11:49:34.898Z,22.50
2019-02-26T11:51:42.454Z,22.70
2019-02-26T11:53:46.910Z,22.70
2019-02-26T11:56:00.030Z,23.00
2019-02-26T11:58:07.730Z,23.20
2019-02-26T12:00:24.374Z,23.00
2019-02-26T12:02:26.140Z,22.80
2019-02-26T12:04:28.959Z,22.90
2019-02-26T12:06:33.766Z,23.00
2019-02-26T12:08:41.834Z,22.90
2019-02-26T12:10:45.174Z,21.90
2019-02-26T12:12:51.448Z,21.70
2019-02-26T12:14:57.214Z,21.70
2019-02-26T12:17:02.352Z,22.10
2019-02-26T12:19:10.127Z,22.20
2019-02-26T12:21:14.160Z,22.10
2019-02-26T12:23:22.047Z,21.90
2019-02-26T12:25:25.627Z,20.40
2019-02-26T12:27:30.408Z,20.80
2019-02-26T12:29:35.284Z,21.00
2019-02-26T12:31:42.378Z,21.30
2019-02-26T12:33:47.218Z,21.10
2019-02-26T12:35:55.554Z,20.80
2019-02-26T12:38:16.970Z,20.60
2019-02-26T12:40:25.696Z,20.50
2019-02-26T12:42:31.783Z,20.50
2019-02-26T12:44:39.566Z,20.70
2019-02-26T12:47:21.506Z,20.70
2019-02-26T12:49:25.338Z,20.80
2019-02-26T12:53:49.595Z,20.30
2019-02-26T12:56:02.500Z,20.30
2019-02-26T13:17:26.181Z,19.80
2019-02-26T13:19:32.765Z,19.60
2019-02-26T13:21:35.296Z,19.60
2019-02-26T13:23:40.215Z,19.50
2019-02-26T13:25:45.045Z,19.50
2019-02-26T13:27:50.294Z,19.40
2019-02-26T13:29:57.119Z,19.60
2019-02-26T13:32:01.568Z,19.50
2019-02-26T13:34:06.359Z,19.50
2019-02-26T13:36:11.557Z,19.40
2019-02-26T13:38:16.405Z,19.30
2019-02-26T13:40:21.743Z,19.40
2019-02-26T13:42:27.041Z,19.40
2019-02-26T13:44:31.886Z,19.30
2019-02-26T13:46:36.719Z,19.30
2019-02-26T13:48:42.087Z,19.40
2019-02-26T13:50:46.898Z,19.30
2019-02-26T13:52:52.381Z,19.30
2019-02-26T13:54:57.428Z,19.30
2019-02-26T13:57:02.403Z,19.30
2019-02-26T13:59:07.168Z,19.30
2019-02-26T14:01:12.076Z,19.20
2019-02-26T14:03:16.839Z,19.20
2019-02-26T14:05:21.977Z,19.30
2019-02-26T14:07:27.165Z,19.30
2019-02-26T14:09:31.887Z,19.30
2019-02-26T14:11:36.694Z,19.30
2019-02-26T14:13:41.568Z,19.30
2019-02-26T14:15:46.500Z,19.30
2019-02-26T14:17:53.283Z,19.30
2019-02-26T14:19:59.595Z,19.40
2019-02-26T14:22:08.205Z,19.30
2019-02-26T14:24:14.263Z,19.10
2019-02-26T14:26:32.423Z,19.00
2019-02-26T14:28:39.725Z,18.90
2019-02-26T14:30:49.516Z,18.90
2019-02-26T14:32:54.814Z,18.80
2019-02-26T14:35:00.742Z,18.80
2019-02-26T14:37:05.553Z,18.70
2019-02-26T14:39:15.190Z,18.80
2019-02-26T14:41:20.028Z,18.90
2019-02-26T14:43:25.155Z,18.80
2019-02-26T14:45:32.724Z,18.80
2019-02-26T14:47:40.679Z,18.70
2019-02-26T14:49:45.892Z,18.60
2019-02-26T14:51:51.066Z,18.70
2019-02-26T14:53:58.971Z,18.60
2019-02-26T14:56:07.759Z,18.40
2019-02-26T14:58:16.898Z,18.30
2019-02-26T15:00:35.187Z,18.40
2019-02-26T15:02:41.985Z,18.40
2019-02-26T15:04:49.969Z,18.50
2019-02-26T15:07:01.779Z,18.40
2019-02-26T15:09:10.485Z,18.40
2019-02-26T15:11:15.304Z,18.20
2019-02-26T15:13:20.132Z,18.20
2019-02-26T15:15:24.990Z,18.20
2019-02-26T15:17:30.898Z,18.10
2019-02-26T15:19:35.737Z,18.00
2019-02-26T15:21:40.523Z,17.90
2019-02-26T15:23:46.932Z,17.70
2019-02-26T15:25:52.218Z,17.60
2019-02-26T15:28:04.941Z,17.40
2019-02-26T15:30:08.716Z,17.20
2019-02-26T15:32:18.022Z,17.20
2019-02-26T15:34:23.971Z,17.20
2019-02-26T15:36:31.327Z,17.10
2019-02-26T15:38:46.045Z,17.10
2019-02-26T15:40:53.375Z,17.10
2019-02-26T15:43:00.362Z,17.00
2019-02-26T15:45:06.717Z,16.90
2019-02-26T15:47:12.609Z,16.90
2019-02-26T15:49:17.941Z,16.90
2019-02-26T15:51:23.286Z,16.90
2019-02-26T15:53:28.318Z,17.00
2019-02-26T15:55:34.372Z,17.00
2019-02-26T15:57:40.686Z,16.90
2019-02-26T15:59:45.846Z,16.90
2019-02-26T16:01:50.802Z,16.80
2019-02-26T16:03:55.686Z,16.80
2019-02-26T16:06:00.586Z,16.70
2019-02-26T16:08:05.412Z,16.60
2019-02-26T16:10:11.316Z,16.40
2019-02-26T16:12:16.186Z,16.40
2019-02-26T16:14:21.446Z,16.30
2019-02-26T16:16:26.697Z,16.10
2019-02-26T16:18:31.626Z,16.00
2019-02-26T16:20:36.400Z,15.90
2019-02-26T16:22:41.460Z,15.80
2019-02-26T16:24:46.829Z,15.70
2019-02-26T16:26:51.939Z,15.60
2019-02-26T16:29:00.827Z,15.40
2019-02-26T16:31:04.630Z,15.30
2019-02-26T16:33:11.278Z,15.20
2019-02-26T16:35:16.901Z,15.10
2019-02-26T16:37:22.287Z,15.00
2019-02-26T16:39:27.481Z,14.90
2019-02-26T16:41:59.398Z,14.80
2019-02-26T16:44:05.125Z,14.80
2019-02-26T16:46:11.541Z,14.70
2019-02-26T16:48:16.950Z,14.50
2019-02-26T16:50:26.410Z,14.40
2019-02-26T16:52:37.428Z,14.20
2019-02-26T16:54:42.709Z,14.00
2019-02-26T16:56:56.065Z,13.80
2019-02-26T16:59:01.126Z,13.70
2019-02-26T17:01:07.040Z,13.50
2019-02-26T17:03:13.261Z,13.30
2019-02-26T17:05:36.304Z,13.20
2019-02-26T17:07:41.468Z,13.00
2019-02-26T17:09:46.790Z,12.80
2019-02-26T17:11:52.073Z,12.70
2019-02-26T17:13:57.256Z,12.50
2019-02-26T17:16:02.126Z,12.40
2019-02-26T17:18:09.588Z,12.30
2019-02-26T17:20:13.692Z,12.10
2019-02-26T17:22:18.577Z,12.00
2019-02-26T17:24:23.513Z,11.80
2019-02-26T17:26:28.226Z,11.70
2019-02-26T17:28:36.376Z,11.60
2019-02-26T17:30:41.563Z,11.50
2019-02-26T17:32:46.650Z,11.40
2019-02-26T17:34:53.736Z,11.20
2019-02-26T17:36:58.273Z,11.10
2019-02-26T17:39:03.376Z,11.00
2019-02-26T17:41:09.920Z,10.90
2019-02-26T17:43:15.011Z,10.80
2019-02-26T17:45:20.109Z,10.70
2019-02-26T17:47:24.893Z,10.60
2019-02-26T17:49:36.847Z,10.50
2019-02-26T17:51:43.774Z,10.50
2019-02-26T17:53:50.377Z,10.30
2019-02-26T17:55:58.200Z,10.20
2019-02-26T17:58:03.125Z,10.10
2019-02-26T18:00:10.113Z,10.10
2019-02-26T18:02:15.640Z,10.00
2019-02-26T18:04:23.570Z,10.00
2019-02-26T18:06:28.521Z,9.90
2019-02-26T18:08:33.768Z,9.80
2019-02-26T18:10:41.373Z,9.70
2019-02-26T18:12:46.297Z,9.60
2019-02-26T18:14:51.801Z,9.50
2019-02-26T18:16:56.929Z,9.50
2019-02-26T18:19:02.028Z,9.40
2019-02-26T18:21:06.928Z,9.30
2019-02-26T18:23:11.956Z,9.30
2019-02-26T18:25:17.617Z,9.20
2019-02-26T18:31:11.417Z,9.00
2019-02-26T18:33:16.103Z,9.00
2019-02-26T18:35:21.264Z,8.90
2019-02-26T18:37:26.115Z,8.80
2019-02-26T18:39:32.441Z,8.80
2019-02-26T18:41:38.512Z,8.70
2019-02-26T18:43:44.815Z,8.70
2019-02-26T18:45:50.295Z,8.60
2019-02-26T18:47:55.269Z,8.60
2019-02-26T18:50:00.324Z,8.50
2019-02-26T18:52:08.396Z,8.40
2019-02-26T18:54:12.213Z,8.40
2019-02-26T18:56:17.029Z,8.30
2019-02-26T18:58:21.840Z,8.30
2019-02-26T19:04:00.278Z,8.10
2019-02-26T19:09:20.531Z,8.10
2019-02-26T19:27:45.375Z,7.60
2019-02-26T19:29:50.516Z,7.60
2019-02-26T19:34:28.124Z,7.50
2019-02-26T19:48:16.859Z,7.20
2019-02-26T19:53:38.488Z,7.20
2019-02-26T19:58:50.088Z,7.10
2019-02-26T20:01:27.831Z,7.00
2019-02-26T20:03:39.839Z,7.00
2019-02-26T20:05:41.140Z,6.90
2019-02-26T20:07:45.961Z,6.90
2019-02-26T20:09:50.785Z,6.80
2019-02-26T20:11:56.288Z,6.80
2019-02-26T20:14:04.709Z,6.70
2019-02-26T20:16:08.845Z,6.70
2019-02-26T20:18:20.507Z,6.60
2019-02-26T20:20:20.501Z,6.60
2019-02-26T20:22:25.467Z,6.50
2019-02-26T20:24:30.457Z,6.50
2019-02-26T20:26:35.199Z,6.50
2019-02-26T20:28:40.183Z,6.50
2019-02-26T20:30:45.088Z,6.40
2019-02-26T20:32:49.895Z,6.40
2019-02-26T20:34:54.733Z,6.40
2019-02-26T20:36:59.607Z,6.30
2019-02-26T20:39:07.967Z,6.30
2019-02-26T20:41:12.875Z,6.30
2019-02-26T20:43:17.829Z,6.20
2019-02-26T20:45:23.154Z,6.10
2019-02-26T20:47:31.331Z,6.10
2019-02-26T20:49:34.712Z,6.10
2019-02-26T20:51:39.882Z,6.10
2019-02-26T20:54:03.678Z,6.00
2019-02-26T20:56:08.570Z,5.90
2019-02-26T20:58:13.465Z,5.90
2019-02-26T21:00:19.283Z,5.90
2019-02-26T21:02:24.720Z,5.90
2019-02-26T21:04:29.717Z,5.80
2019-02-26T21:06:35.026Z,5.80
2019-02-26T21:08:40.994Z,5.80
2019-02-26T21:10:52.875Z,5.70
2019-02-26T21:13:01.587Z,5.70
2019-02-26T21:15:16.114Z,5.70
2019-02-26T21:17:31.340Z,5.70
2019-02-26T21:20:00.955Z,5.60
2019-02-26T21:22:14.147Z,5.60
2019-02-26T21:24:26.366Z,5.60
2019-02-26T21:26:35.554Z,5.50
2019-02-26T21:28:53.705Z,5.50
2019-02-26T21:31:13.782Z,5.50
2019-02-26T21:33:30.814Z,5.40
2019-02-26T21:35:36.570Z,5.30
2019-02-26T21:37:50.062Z,5.30
2019-02-26T21:40:03.301Z,5.30
2019-02-26T21:42:17.878Z,5.30
2019-02-26T21:44:43.966Z,5.20
2019-02-26T21:47:03.949Z,5.20
2019-02-26T21:49:55.778Z,5.20
2019-02-26T21:52:25.864Z,5.10
2019-02-26T21:55:05.931Z,5.10
2019-02-26T21:58:05.395Z,5.00
2019-02-26T21:59:26.644Z,5.00
2019-02-26T22:01:33.088Z,5.00
2019-02-26T22:03:39.090Z,5.00
2019-02-26T22:05:45.094Z,5.00
2019-02-26T22:07:52.412Z,5.00
2019-02-26T22:09:59.254Z,4.90
2019-02-26T22:12:04.948Z,4.90
2019-02-26T22:14:10.926Z,4.90
2019-02-26T22:16:17.697Z,4.90
2019-02-26T22:18:24.146Z,4.90
2019-02-26T22:20:36.158Z,4.80
2019-02-26T22:22:38.203Z,4.80
2019-02-26T22:24:46.108Z,4.70
2019-02-26T22:26:52.392Z,4.70
2019-02-26T22:29:00.007Z,4.70
2019-02-26T22:31:06.960Z,4.70
2019-02-26T22:33:11.738Z,4.70
2019-02-26T22:35:16.566Z,4.60
2019-02-26T22:37:21.398Z,4.60
2019-02-26T22:39:26.272Z,4.50
2019-02-26T22:41:32.737Z,4.50
2019-02-26T22:43:40.121Z,4.50
2019-02-26T22:45:44.905Z,4.50
2019-02-26T22:47:49.729Z,4.40
2019-02-26T22:49:54.479Z,4.40
2019-02-26T22:51:59.495Z,4.40
2019-02-26T22:54:04.377Z,4.30
2019-02-26T22:56:09.558Z,4.30
2019-02-26T22:58:14.381Z,4.30
2019-02-26T23:00:49.695Z,4.30
2019-02-26T23:02:54.955Z,4.20
2019-02-26T23:04:59.758Z,4.20
2019-02-26T23:07:05.174Z,4.10
2019-02-26T23:09:17.658Z,4.10
2019-02-26T23:11:21.126Z,4.10
2019-02-26T23:13:25.968Z,4.10
2019-02-26T23:15:31.724Z,4.10
2019-02-26T23:17:36.957Z,4.10
2019-02-26T23:19:41.890Z,4.00
2019-02-26T23:21:49.781Z,4.00
2019-02-26T23:23:54.838Z,4.00
2019-02-26T23:25:59.868Z,4.00
2019-02-26T23:28:04.946Z,3.90
2019-02-26T23:30:11.358Z,3.90
2019-02-26T23:32:16.485Z,3.80
2019-02-26T23:34:22.632Z,3.90
2019-02-26T23:36:28.601Z,3.80
2019-02-26T23:38:33.454Z,3.80
2019-02-26T23:40:38.355Z,3.80
2019-02-26T23:42:43.128Z,3.70
2019-02-26T23:44:50.902Z,3.70
2019-02-26T23:46:54.424Z,3.60
2019-02-26T23:48:59.466Z,3.60
2019-02-26T23:51:04.639Z,3.60
2019-02-26T23:53:10.226Z,3.60
2019-02-26T23:55:14.994Z,3.60
2019-02-26T23:57:20.123Z,3.50
2019-02-26T23:59:25.242Z,3.50
